createdAt,value
2023-12-17T00:01:16.060Z,5.11
2023-12-17T00:03:44.444Z,5.12
2023-12-17T00:06:13.116Z,5.15
2023-12-17T00:08:41.784Z,5.17
2023-12-17T00:11:10.326Z,5.19
2023-12-17T00:13:38.968Z,5.21
2023-12-17T00:16:08.854Z,5.23
2023-12-17T00:18:37.484Z,5.26
2023-12-17T00:21:06.658Z,5.27
2023-12-17T00:23:35.041Z,5.29
2023-12-17T00:26:03.756Z,5.29
2023-12-17T00:28:32.268Z,5.32
2023-12-17T00:31:00.707Z,5.33
2023-12-17T00:33:29.202Z,5.35
2023-12-17T00:35:57.674Z,5.38
2023-12-17T00:38:26.042Z,5.39
2023-12-17T00:40:54.351Z,5.41
2023-12-17T00:43:23.015Z,5.43
2023-12-17T00:45:51.386Z,5.45
2023-12-17T00:48:19.865Z,5.46
2023-12-17T00:50:48.419Z,5.47
2023-12-17T00:53:16.810Z,5.49
2023-12-17T00:55:45.208Z,5.51
2023-12-17T00:58:13.702Z,5.52
2023-12-17T01:00:49.835Z,5.54
2023-12-17T01:03:23.687Z,5.55
2023-12-17T01:05:52.443Z,5.57
2023-12-17T01:08:21.480Z,5.60
2023-12-17T01:10:49.929Z,5.61
2023-12-17T01:13:18.323Z,5.62
2023-12-17T01:15:46.786Z,5.64
2023-12-17T01:18:15.470Z,5.65
2023-12-17T01:20:44.218Z,5.66
2023-12-17T01:23:12.619Z,5.68
2023-12-17T01:25:41.321Z,5.71
2023-12-17T01:28:09.751Z,5.71
2023-12-17T01:30:38.666Z,5.73
2023-12-17T01:33:07.208Z,5.73
2023-12-17T01:35:35.648Z,5.73
2023-12-17T01:38:03.966Z,5.74
2023-12-17T01:40:33.013Z,5.73
2023-12-17T01:43:04.470Z,5.74
2023-12-17T01:45:32.801Z,5.74
2023-12-17T01:48:01.934Z,5.74
2023-12-17T01:50:30.418Z,5.73
2023-12-17T01:52:59.522Z,5.73
2023-12-17T01:55:28.577Z,5.73
2023-12-17T01:57:57.614Z,5.73
2023-12-17T02:00:26.515Z,5.73
2023-12-17T02:02:54.972Z,5.72
2023-12-17T02:05:23.442Z,5.73
2023-12-17T02:07:52.763Z,5.72
2023-12-17T02:10:21.160Z,5.72
2023-12-17T02:12:49.461Z,5.72
2023-12-17T02:15:18.198Z,5.72
2023-12-17T02:17:47.457Z,5.71
2023-12-17T02:20:16.113Z,5.71
2023-12-17T02:22:44.853Z,5.71
2023-12-17T02:25:13.314Z,5.72
2023-12-17T02:27:44.336Z,5.73
2023-12-17T02:30:13.501Z,5.72
2023-12-17T02:32:42.185Z,5.73
2023-12-17T02:35:10.437Z,5.72
2023-12-17T02:37:38.997Z,5.72
2023-12-17T02:40:10.129Z,5.72
2023-12-17T02:42:38.540Z,5.72
2023-12-17T02:45:09.591Z,5.73
2023-12-17T02:47:38.322Z,5.72
2023-12-17T02:50:08.776Z,5.72
2023-12-17T02:52:37.206Z,5.71
2023-12-17T02:55:07.603Z,5.72
2023-12-17T02:57:35.844Z,5.72
2023-12-17T03:00:07.117Z,5.72
2023-12-17T03:02:35.554Z,5.72
2023-12-17T03:05:06.848Z,5.74
2023-12-17T03:07:35.126Z,5.76
2023-12-17T03:10:03.983Z,5.75
2023-12-17T03:12:32.406Z,5.76
2023-12-17T03:15:00.753Z,5.77
2023-12-17T03:17:29.517Z,5.78
2023-12-17T03:19:57.880Z,5.79
2023-12-17T03:22:26.239Z,5.80
2023-12-17T03:24:54.530Z,5.82
2023-12-17T03:27:22.821Z,5.82
2023-12-17T03:29:52.476Z,5.83
2023-12-17T03:32:20.895Z,5.83
2023-12-17T03:34:49.453Z,5.86
2023-12-17T03:37:17.817Z,5.85
2023-12-17T03:39:46.215Z,5.85
2023-12-17T03:42:14.593Z,5.86
2023-12-17T03:44:42.966Z,5.86
2023-12-17T03:47:11.332Z,5.86
2023-12-17T03:49:39.634Z,5.87
2023-12-17T03:52:08.343Z,5.87
2023-12-17T03:54:36.686Z,5.88
2023-12-17T03:57:05.665Z,5.89
2023-12-17T03:59:34.138Z,5.89
2023-12-17T04:02:03.568Z,5.90
2023-12-17T04:04:31.845Z,5.90
2023-12-17T04:07:00.208Z,5.90
2023-12-17T04:09:28.625Z,5.90
2023-12-17T04:11:57.181Z,5.90
2023-12-17T04:14:26.762Z,5.91
2023-12-17T04:16:55.019Z,5.91
2023-12-17T04:19:23.424Z,5.91
2023-12-17T04:21:52.184Z,5.91
2023-12-17T04:24:20.517Z,5.91
2023-12-17T04:26:49.119Z,5.90
2023-12-17T04:29:17.559Z,5.90
2023-12-17T04:31:45.931Z,5.92
2023-12-17T04:34:14.354Z,5.92
2023-12-17T04:36:43.609Z,5.92
2023-12-17T04:39:12.651Z,5.92
2023-12-17T04:41:41.457Z,5.93
2023-12-17T04:44:09.925Z,5.93
2023-12-17T04:46:39.641Z,5.94
2023-12-17T04:49:08.206Z,5.95
2023-12-17T04:51:36.794Z,5.96
2023-12-17T04:54:05.297Z,5.96
2023-12-17T04:56:33.702Z,5.98
2023-12-17T04:59:04.826Z,5.98
2023-12-17T05:01:33.132Z,5.99
2023-12-17T05:04:01.559Z,5.99
2023-12-17T05:06:30.038Z,5.99
2023-12-17T05:08:58.450Z,6.01
2023-12-17T05:11:26.779Z,6.02
2023-12-17T05:13:55.100Z,6.03
2023-12-17T05:16:24.738Z,6.05
2023-12-17T05:18:53.118Z,6.06
2023-12-17T05:21:21.830Z,6.07
2023-12-17T05:23:50.220Z,6.07
2023-12-17T05:26:18.540Z,6.08
2023-12-17T05:28:46.849Z,6.10
2023-12-17T05:31:15.135Z,6.11
2023-12-17T05:33:47.048Z,6.12
2023-12-17T05:36:15.552Z,6.14
2023-12-17T05:38:44.195Z,6.14
2023-12-17T05:41:12.594Z,6.15
2023-12-17T05:43:40.888Z,6.17
2023-12-17T05:46:09.245Z,6.18
2023-12-17T05:48:37.830Z,6.18
2023-12-17T05:51:09.946Z,6.19
2023-12-17T05:53:43.845Z,6.20
2023-12-17T05:56:15.563Z,6.20
2023-12-17T05:58:45.071Z,6.22
2023-12-17T06:01:14.613Z,6.24
2023-12-17T06:03:43.096Z,6.25
2023-12-17T06:06:11.867Z,6.25
2023-12-17T06:08:40.291Z,6.27
2023-12-17T06:11:08.536Z,6.27
2023-12-17T06:13:37.806Z,6.30
2023-12-17T06:16:07.154Z,6.32
2023-12-17T06:18:36.972Z,6.36
2023-12-17T06:21:07.075Z,6.37
2023-12-17T06:23:35.934Z,6.38
2023-12-17T06:26:05.112Z,6.39
2023-12-17T06:28:33.464Z,6.39
2023-12-17T06:31:01.869Z,6.41
2023-12-17T06:33:30.444Z,6.41
2023-12-17T06:35:59.067Z,6.43
2023-12-17T06:38:27.413Z,6.44
2023-12-17T06:40:56.269Z,6.45
2023-12-17T06:43:25.345Z,6.46
2023-12-17T06:45:55.087Z,6.48
2023-12-17T06:48:23.613Z,6.49
2023-12-17T06:50:52.046Z,6.50
2023-12-17T06:53:20.414Z,6.51
2023-12-17T06:55:48.658Z,6.52
2023-12-17T06:58:16.962Z,6.53
2023-12-17T07:00:45.960Z,6.54
2023-12-17T07:03:18.847Z,6.55
2023-12-17T07:05:47.612Z,6.57
2023-12-17T07:08:16.072Z,6.58
2023-12-17T07:10:45.413Z,6.60
2023-12-17T07:13:13.832Z,6.62
2023-12-17T07:15:44.166Z,6.63
2023-12-17T07:18:13.041Z,6.65
2023-12-17T07:20:41.603Z,6.66
2023-12-17T07:23:09.964Z,6.67
2023-12-17T07:25:38.212Z,6.68
2023-12-17T07:28:06.570Z,6.70
2023-12-17T07:30:35.798Z,6.72
2023-12-17T07:33:05.233Z,6.73
2023-12-17T07:35:33.644Z,6.74
2023-12-17T07:38:02.052Z,6.75
2023-12-17T07:40:30.484Z,6.75
2023-12-17T07:42:58.729Z,6.77
2023-12-17T07:45:27.083Z,6.78
2023-12-17T07:47:55.397Z,6.80
2023-12-17T07:50:23.883Z,6.81
2023-12-17T07:52:52.256Z,6.81
2023-12-17T07:55:20.624Z,6.83
2023-12-17T07:57:48.983Z,6.83
2023-12-17T08:00:20.162Z,6.84
2023-12-17T08:02:49.137Z,6.85
2023-12-17T08:05:18.250Z,6.87
2023-12-17T08:07:46.783Z,6.87
2023-12-17T08:10:15.195Z,6.88
2023-12-17T08:12:43.901Z,6.90
2023-12-17T08:15:12.737Z,6.90
2023-12-17T08:17:41.885Z,6.92
2023-12-17T08:20:11.310Z,6.94
2023-12-17T08:22:39.683Z,6.95
2023-12-17T08:25:09.272Z,6.97
2023-12-17T08:27:37.650Z,7.00
2023-12-17T08:30:08.569Z,7.01
2023-12-17T08:32:37.057Z,7.03
2023-12-17T08:35:07.419Z,7.04
2023-12-17T08:37:36.319Z,7.06
2023-12-17T08:40:06.073Z,7.07
2023-12-17T08:42:34.498Z,7.08
2023-12-17T08:45:03.046Z,7.10
2023-12-17T08:47:31.517Z,7.10
2023-12-17T08:50:01.696Z,7.12
2023-12-17T08:52:30.158Z,7.13
2023-12-17T08:54:58.736Z,7.14
2023-12-17T08:57:27.417Z,7.16
2023-12-17T08:59:55.784Z,7.17
2023-12-17T09:02:24.122Z,7.18
2023-12-17T09:04:53.484Z,7.19
2023-12-17T09:07:21.895Z,7.20
2023-12-17T09:09:50.320Z,7.21
2023-12-17T09:12:18.938Z,7.22
2023-12-17T09:14:47.438Z,7.22
2023-12-17T09:17:15.985Z,7.24
2023-12-17T09:19:44.661Z,7.24
2023-12-17T09:22:13.212Z,7.25
2023-12-17T09:24:42.258Z,7.26
2023-12-17T09:27:10.767Z,7.25
2023-12-17T09:29:39.233Z,7.25
2023-12-17T09:32:09.959Z,7.25
2023-12-17T09:34:38.604Z,7.25
2023-12-17T09:37:07.555Z,7.27
2023-12-17T09:39:36.309Z,7.26
2023-12-17T09:42:05.726Z,7.25
2023-12-17T09:44:34.175Z,7.25
2023-12-17T09:47:03.843Z,7.24
2023-12-17T09:49:32.316Z,7.23
2023-12-17T09:52:04.808Z,7.22
2023-12-17T09:54:33.347Z,7.22
2023-12-17T09:57:04.328Z,7.21
2023-12-17T09:59:32.713Z,7.21
2023-12-17T10:02:01.052Z,7.20
2023-12-17T10:04:29.940Z,7.19
2023-12-17T10:06:58.438Z,7.19
2023-12-17T10:09:26.811Z,7.18
2023-12-17T10:11:57.534Z,7.18
2023-12-17T10:14:28.701Z,7.18
2023-12-17T10:16:57.849Z,7.17
2023-12-17T10:19:29.215Z,7.18
2023-12-17T10:21:58.250Z,7.19
2023-12-17T10:24:37.666Z,7.19
2023-12-17T10:27:12.361Z,7.19
2023-12-17T10:29:41.277Z,7.19
2023-12-17T10:32:10.567Z,7.19
2023-12-17T10:34:40.610Z,7.20
2023-12-17T10:37:09.025Z,7.22
2023-12-17T10:39:37.745Z,7.21
2023-12-17T10:42:07.261Z,7.21
2023-12-17T10:44:36.752Z,7.21
2023-12-17T10:47:05.925Z,7.21
2023-12-17T10:49:34.583Z,7.21
2023-12-17T10:52:03.735Z,7.19
2023-12-17T10:54:32.216Z,7.20
2023-12-17T10:57:02.393Z,7.20
2023-12-17T10:59:38.010Z,7.19
2023-12-17T11:02:10.818Z,7.19
2023-12-17T11:04:45.939Z,7.18
2023-12-17T11:07:26.613Z,7.18
2023-12-17T11:10:03.438Z,7.18
2023-12-17T11:12:31.975Z,7.18
2023-12-17T11:15:01.060Z,7.19
2023-12-17T11:17:29.873Z,7.19
2023-12-17T11:19:59.309Z,7.19
2023-12-17T11:22:28.506Z,7.20
2023-12-17T11:24:58.111Z,7.21
2023-12-17T11:27:27.161Z,7.22
2023-12-17T11:29:57.125Z,7.23
2023-12-17T11:32:27.682Z,7.23
2023-12-17T11:34:57.419Z,7.23
2023-12-17T11:37:30.627Z,7.24
2023-12-17T11:39:59.203Z,7.24
2023-12-17T11:42:27.821Z,7.23
2023-12-17T11:44:56.159Z,7.24
2023-12-17T11:47:27.305Z,7.24
2023-12-17T11:50:00.564Z,7.23
2023-12-17T11:52:30.241Z,7.23
2023-12-17T11:55:03.469Z,7.23
2023-12-17T11:57:32.071Z,7.23
2023-12-17T12:00:00.839Z,7.22
2023-12-17T12:02:34.067Z,7.21
2023-12-17T12:05:02.521Z,7.21
2023-12-17T12:07:31.355Z,7.21
2023-12-17T12:10:08.348Z,7.21
2023-12-17T12:12:37.133Z,7.20
2023-12-17T12:15:08.566Z,7.20
2023-12-17T12:17:41.634Z,7.20
2023-12-17T12:20:13.350Z,7.20
2023-12-17T12:22:45.368Z,7.19
2023-12-17T12:25:20.030Z,7.18
2023-12-17T12:27:48.336Z,7.18
2023-12-17T12:30:26.663Z,7.18
2023-12-17T12:32:55.340Z,7.19
2023-12-17T12:35:29.901Z,7.18
2023-12-17T12:37:58.334Z,7.17
2023-12-17T12:40:32.793Z,7.16
2023-12-17T12:43:04.652Z,7.15
2023-12-17T12:45:34.164Z,7.14
2023-12-17T12:48:03.243Z,7.13
2023-12-17T12:50:31.697Z,7.12
2023-12-17T12:53:08.946Z,7.12
2023-12-17T12:55:41.063Z,7.11
2023-12-17T12:58:09.569Z,7.10
2023-12-17T13:00:38.097Z,7.10
2023-12-17T13:03:06.876Z,7.10
2023-12-17T13:05:35.449Z,7.09
2023-12-17T13:08:04.115Z,7.08
2023-12-17T13:10:32.777Z,7.08
2023-12-17T13:13:01.365Z,7.08
2023-12-17T13:15:32.261Z,7.07
2023-12-17T13:18:03.232Z,7.05
2023-12-17T13:20:31.939Z,7.05
2023-12-17T13:23:00.384Z,7.03
2023-12-17T13:25:30.090Z,7.03
2023-12-17T13:27:58.542Z,7.02
2023-12-17T13:30:27.261Z,7.02
2023-12-17T13:33:00.771Z,7.01
2023-12-17T13:35:29.244Z,7.01
2023-12-17T13:37:57.668Z,7.00
2023-12-17T13:40:26.618Z,7.01
2023-12-17T13:42:55.615Z,7.02
2023-12-17T13:45:23.973Z,7.02
2023-12-17T13:47:52.323Z,7.01
2023-12-17T13:50:21.270Z,7.01
2023-12-17T13:52:50.021Z,7.01
2023-12-17T13:55:18.493Z,7.01
2023-12-17T13:57:47.064Z,7.02
2023-12-17T14:00:16.520Z,7.02
2023-12-17T14:02:45.539Z,7.04
2023-12-17T14:05:14.895Z,7.04
2023-12-17T14:07:43.742Z,7.04
2023-12-17T14:10:12.347Z,7.05
2023-12-17T14:12:41.017Z,7.04
2023-12-17T14:15:11.234Z,7.05
2023-12-17T14:17:39.715Z,7.04
2023-12-17T14:20:14.300Z,7.05
2023-12-17T14:22:48.471Z,7.05
2023-12-17T14:25:17.196Z,7.06
2023-12-17T14:27:45.817Z,7.06
2023-12-17T14:30:15.086Z,7.06
2023-12-17T14:32:43.618Z,7.07
2023-12-17T14:35:12.599Z,7.08
2023-12-17T14:37:40.909Z,7.08
2023-12-17T14:40:11.424Z,7.09
2023-12-17T14:42:41.372Z,7.08
2023-12-17T14:45:10.713Z,7.08
2023-12-17T14:47:39.112Z,7.08
2023-12-17T14:50:09.963Z,7.08
2023-12-17T14:52:38.411Z,7.08
2023-12-17T14:55:07.868Z,7.08
2023-12-17T14:57:36.386Z,7.07
2023-12-17T15:00:09.768Z,7.08
2023-12-17T15:02:38.214Z,7.09
2023-12-17T15:05:07.576Z,7.11
2023-12-17T15:07:35.888Z,7.10
2023-12-17T15:10:06.832Z,7.10
2023-12-17T15:12:37.203Z,7.09
2023-12-17T15:15:08.213Z,7.09
2023-12-17T15:17:36.626Z,7.09
2023-12-17T15:20:06.808Z,7.08
2023-12-17T15:22:35.387Z,7.07
2023-12-17T15:25:04.316Z,7.07
2023-12-17T15:27:33.433Z,7.07
2023-12-17T15:30:03.440Z,7.07
2023-12-17T15:32:32.241Z,7.06
2023-12-17T15:35:00.548Z,7.05
2023-12-17T15:37:29.247Z,7.05
2023-12-17T15:39:57.573Z,7.05
2023-12-17T15:42:26.266Z,7.04
2023-12-17T15:44:54.692Z,7.03
2023-12-17T15:47:23.361Z,7.03
2023-12-17T15:49:52.114Z,7.03
2023-12-17T15:52:20.488Z,7.02
2023-12-17T15:54:48.767Z,7.02
2023-12-17T15:57:17.063Z,7.03
2023-12-17T15:59:45.903Z,7.03
2023-12-17T16:02:14.479Z,7.08
2023-12-17T16:04:42.774Z,7.17
2023-12-17T16:07:13.089Z,7.20
2023-12-17T16:09:42.059Z,7.19
2023-12-17T16:12:11.190Z,7.17
2023-12-17T16:14:39.572Z,7.16
2023-12-17T16:17:08.030Z,7.15
2023-12-17T16:19:36.466Z,7.13
2023-12-17T16:22:05.413Z,7.13
2023-12-17T16:24:33.939Z,7.14
2023-12-17T16:27:02.374Z,7.15
2023-12-17T16:29:30.837Z,7.15
2023-12-17T16:31:59.135Z,7.15
2023-12-17T16:34:27.603Z,7.16
2023-12-17T16:36:56.167Z,7.15
2023-12-17T16:39:24.855Z,7.16
2023-12-17T16:41:55.336Z,7.17
2023-12-17T16:44:23.889Z,7.18
2023-12-17T16:46:52.582Z,7.18
2023-12-17T16:49:20.957Z,7.18
2023-12-17T16:51:49.416Z,7.19
2023-12-17T16:54:17.696Z,7.19
2023-12-17T16:56:46.075Z,7.19
2023-12-17T16:59:14.424Z,7.19
2023-12-17T17:01:54.508Z,7.18
2023-12-17T17:04:23.023Z,7.17
2023-12-17T17:06:52.297Z,7.17
2023-12-17T17:09:20.791Z,7.17
2023-12-17T17:11:49.129Z,7.15
2023-12-17T17:14:17.485Z,7.15
2023-12-17T17:16:46.928Z,7.15
2023-12-17T17:19:16.505Z,7.14
2023-12-17T17:21:44.823Z,7.14
2023-12-17T17:24:13.461Z,7.15
2023-12-17T17:26:41.996Z,7.15
2023-12-17T17:29:10.717Z,7.15
2023-12-17T17:31:39.150Z,7.15
2023-12-17T17:34:07.657Z,7.15
2023-12-17T17:36:36.162Z,7.14
2023-12-17T17:39:05.140Z,7.13
2023-12-17T17:41:33.553Z,7.14
2023-12-17T17:44:01.951Z,7.13
2023-12-17T17:46:30.563Z,7.14
2023-12-17T17:48:59.173Z,7.15
2023-12-17T17:51:27.495Z,7.15
2023-12-17T17:53:55.940Z,7.15
2023-12-17T17:56:24.526Z,7.16
2023-12-17T17:58:52.821Z,7.16
2023-12-17T18:01:21.250Z,7.17
2023-12-17T18:03:49.778Z,7.17
2023-12-17T18:06:18.521Z,7.17
2023-12-17T18:08:46.871Z,7.19
2023-12-17T18:11:19.420Z,7.19
2023-12-17T18:13:47.700Z,7.20
2023-12-17T18:16:19.550Z,7.20
2023-12-17T18:18:47.986Z,7.20
2023-12-17T18:21:17.809Z,7.21
2023-12-17T18:23:47.537Z,7.21
2023-12-17T18:26:22.351Z,7.21
2023-12-17T18:28:51.105Z,7.21
2023-12-17T18:31:19.560Z,7.21
2023-12-17T18:33:48.196Z,7.20
2023-12-17T18:36:16.725Z,7.20
2023-12-17T18:38:45.632Z,7.19
2023-12-17T18:41:15.051Z,7.19
2023-12-17T18:43:43.356Z,7.19
2023-12-17T18:46:15.893Z,7.18
2023-12-17T18:48:44.829Z,7.18
2023-12-17T18:51:15.157Z,7.19
2023-12-17T18:53:44.668Z,7.19
2023-12-17T18:56:13.175Z,7.18
2023-12-17T18:58:42.003Z,7.19
2023-12-17T19:01:12.549Z,7.19
2023-12-17T19:03:41.151Z,7.19
2023-12-17T19:06:11.905Z,7.18
2023-12-17T19:08:40.299Z,7.17
2023-12-17T19:11:08.611Z,7.17
2023-12-17T19:13:37.419Z,7.17
2023-12-17T19:16:06.320Z,7.17
2023-12-17T19:18:34.641Z,7.15
2023-12-17T19:21:03.152Z,7.14
2023-12-17T19:23:31.805Z,7.13
2023-12-17T19:26:00.100Z,7.12
2023-12-17T19:28:30.008Z,7.10
2023-12-17T19:30:58.357Z,7.09
2023-12-17T19:33:26.894Z,7.07
2023-12-17T19:35:57.328Z,7.04
2023-12-17T19:38:25.636Z,7.01
2023-12-17T19:40:53.963Z,6.99
2023-12-17T19:43:22.375Z,6.96
2023-12-17T19:45:50.710Z,6.94
2023-12-17T19:48:19.214Z,6.91
2023-12-17T19:50:47.867Z,6.90
2023-12-17T19:53:21.545Z,6.88
2023-12-17T19:55:50.264Z,6.86
2023-12-17T19:58:18.701Z,6.84
2023-12-17T20:00:48.129Z,6.83
2023-12-17T20:03:16.664Z,6.81
2023-12-17T20:05:45.379Z,6.80
2023-12-17T20:08:13.967Z,6.80
2023-12-17T20:10:45.438Z,6.79
2023-12-17T20:13:13.867Z,6.78
2023-12-17T20:15:42.387Z,6.76
2023-12-17T20:18:15.982Z,6.74
2023-12-17T20:20:44.574Z,6.72
2023-12-17T20:23:13.514Z,6.70
2023-12-17T20:25:41.801Z,6.69
2023-12-17T20:28:10.081Z,6.67
2023-12-17T20:30:38.486Z,6.66
2023-12-17T20:33:08.746Z,6.64
2023-12-17T20:35:41.313Z,6.63
2023-12-17T20:38:10.778Z,6.63
2023-12-17T20:40:39.345Z,6.61
2023-12-17T20:43:07.700Z,6.59
2023-12-17T20:45:37.285Z,6.58
2023-12-17T20:48:08.455Z,6.57
2023-12-17T20:50:37.290Z,6.54
2023-12-17T20:53:05.823Z,6.54
2023-12-17T20:55:34.254Z,6.54
2023-12-17T20:58:03.000Z,6.52
2023-12-17T21:00:31.600Z,6.49
2023-12-17T21:03:00.200Z,6.48
2023-12-17T21:05:29.018Z,6.46
2023-12-17T21:07:57.676Z,6.44
2023-12-17T21:10:26.028Z,6.44
2023-12-17T21:12:55.622Z,6.43
2023-12-17T21:15:24.156Z,6.42
2023-12-17T21:17:52.539Z,6.40
2023-12-17T21:20:20.972Z,6.39
2023-12-17T21:22:49.351Z,6.39
2023-12-17T21:25:18.942Z,6.38
2023-12-17T21:27:48.339Z,6.37
2023-12-17T21:30:17.564Z,6.36
2023-12-17T21:32:47.720Z,6.35
2023-12-17T21:35:16.153Z,6.35
2023-12-17T21:37:45.180Z,6.33
2023-12-17T21:40:14.285Z,6.32
2023-12-17T21:42:42.907Z,6.31
2023-12-17T21:45:11.435Z,6.28
2023-12-17T21:47:40.146Z,6.26
2023-12-17T21:50:11.118Z,6.25
2023-12-17T21:52:39.595Z,6.24
2023-12-17T21:55:08.350Z,6.22
2023-12-17T21:57:41.586Z,6.22
2023-12-17T22:00:17.890Z,6.22
2023-12-17T22:02:49.206Z,6.21
2023-12-17T22:05:18.283Z,6.19
2023-12-17T22:07:48.117Z,6.16
2023-12-17T22:10:17.159Z,6.14
2023-12-17T22:12:45.574Z,6.10
2023-12-17T22:15:14.634Z,6.07
2023-12-17T22:17:43.489Z,6.04
2023-12-17T22:20:13.930Z,6.01
2023-12-17T22:22:42.426Z,6.00
2023-12-17T22:25:10.667Z,5.97
2023-12-17T22:27:39.964Z,5.95
2023-12-17T22:30:10.707Z,5.92
2023-12-17T22:32:39.263Z,5.90
2023-12-17T22:35:08.794Z,5.88
2023-12-17T22:37:37.147Z,5.84
2023-12-17T22:40:07.924Z,5.82
2023-12-17T22:42:36.251Z,5.79
2023-12-17T22:45:07.733Z,5.76
2023-12-17T22:47:37.543Z,5.74
2023-12-17T22:50:09.322Z,5.73
2023-12-17T22:52:37.809Z,5.71
2023-12-17T22:55:07.974Z,5.69
2023-12-17T22:57:36.301Z,5.68
2023-12-17T23:00:07.652Z,5.66
2023-12-17T23:02:37.069Z,5.64
2023-12-17T23:05:05.734Z,5.61
2023-12-17T23:07:34.172Z,5.58
2023-12-17T23:10:02.437Z,5.57
2023-12-17T23:12:30.762Z,5.56
2023-12-17T23:14:59.100Z,5.54
2023-12-17T23:17:27.442Z,5.52
2023-12-17T23:19:57.731Z,5.52
2023-12-17T23:22:26.069Z,5.52
2023-12-17T23:24:55.135Z,5.49
2023-12-17T23:27:23.593Z,5.48
2023-12-17T23:29:51.933Z,5.48
2023-12-17T23:32:27.960Z,5.48
2023-12-17T23:34:58.633Z,5.49
2023-12-17T23:37:28.797Z,5.50
2023-12-17T23:39:57.090Z,5.51
2023-12-17T23:42:25.478Z,5.52
2023-12-17T23:44:56.230Z,5.52
2023-12-17T23:47:24.574Z,5.53
2023-12-17T23:49:52.969Z,5.56
2023-12-17T23:52:21.230Z,5.58
2023-12-17T23:54:49.532Z,5.60
2023-12-17T23:57:17.888Z,5.63
2023-12-17T23:59:46.221Z,5.67
